Time;durP1;ratioP1;P1;durP2;ratioP2;P2;SDS_P1;SDS_P2;PMS_P1;PMS_P2;Temp;Humidity;BMP_temperature;BMP_pressure;BME280_temperature;BME280_humidity;BME280_pressure;Samples;Min_cycle;Max_cycle;Signal;HPM_P1;HPM_P2
2020/12/29 00:02:24;;;;;;;1087.47;56.42;;;0.70;98.00;;;;;;5081164;28;20032;-71
2020/12/29 00:04:50;;;;;;;892.50;41.67;;;0.70;98.00;;;;;;5098987;28;20039;-71
2020/12/29 00:07:16;;;;;;;823.40;39.25;;;0.80;98.00;;;;;;5099006;28;20316;-71
2020/12/29 00:09:41;;;;;;;742.90;41.55;;;0.70;98.00;;;;;;5098793;28;20035;-71
2020/12/29 00:12:07;;;;;;;669.45;33.60;;;0.70;98.00;;;;;;5099025;28;20028;-71
2020/12/29 00:14:33;;;;;;;526.83;27.95;;;0.60;98.00;;;;;;5098756;28;20124;-71
2020/12/29 00:16:58;;;;;;;301.10;19.20;;;0.60;98.00;;;;;;5098938;28;20031;-71
2020/12/29 00:19:26;;;;;;;201.85;15.75;;;0.60;98.00;;;;;;5098717;28;20017;-71
2020/12/29 00:21:52;;;;;;;12.50;9.43;;;0.60;98.00;;;;;;5098742;28;20024;-71
2020/12/29 00:24:18;;;;;;;10.15;7.55;;;0.60;98.00;;;;;;5080795;28;20050;-71
2020/12/29 00:26:44;;;;;;;6.70;5.28;;;0.60;98.00;;;;;;5098688;28;20032;-71
2020/12/29 00:29:10;;;;;;;7.30;4.82;;;0.60;98.00;;;;;;5098666;28;20020;-71
2020/12/29 00:31:37;;;;;;;5.45;3.97;;;0.70;98.00;;;;;;5080625;28;20099;-71
2020/12/29 00:34:03;;;;;;;5.88;4.10;;;0.80;98.00;;;;;;5098721;28;20420;-71
2020/12/29 00:36:30;;;;;;;3.95;3.10;;;0.80;98.00;;;;;;5098483;28;20028;-71
2020/12/29 00:38:56;;;;;;;4.18;3.00;;;0.90;98.00;;;;;;5098460;28;20047;-71
2020/12/29 00:41:23;;;;;;;3.55;2.30;;;0.90;98.00;;;;;;5098354;28;20028;-71
2020/12/29 00:43:49;;;;;;;2.92;2.15;;;0.90;98.00;;;;;;5098487;28;20081;-71
2020/12/29 00:46:18;;;;;;;3.53;2.15;;;0.90;98.00;;;;;;5098415;28;20353;-71
2020/12/29 00:48:44;;;;;;;784.13;44.33;;;0.90;98.00;;;;;;5080019;28;20431;-71
2020/12/29 00:51:16;;;;;;;1090.20;49.50;;;0.90;98.00;;;;;;5098194;28;20146;-71
2020/12/29 00:53:42;;;;;;;1227.10;63.67;;;0.80;98.00;;;;;;5098207;28;20407;-71
2020/12/29 00:56:09;;;;;;;1022.80;63.80;;;0.70;98.00;;;;;;5098264;28;20032;-71
2020/12/29 00:58:35;;;;;;;857.47;37.05;;;0.50;98.00;;;;;;5098001;28;20052;-71
2020/12/29 01:01:01;;;;;;;1673.80;103.57;;;0.60;98.00;;;;;;5097959;28;20409;-71
2020/12/29 01:03:27;;;;;;;1637.88;89.60;;;0.60;98.00;;;;;;5097928;28;20020;-71
2020/12/29 01:05:53;;;;;;;1513.03;75.90;;;0.60;98.00;;;;;;5098079;28;20028;-71
2020/12/29 01:08:20;;;;;;;1669.93;103.50;;;0.70;98.00;;;;;;5097831;28;20051;-71
2020/12/29 01:10:48;;;;;;;1429.03;83.88;;;0.70;98.00;;;;;;5097778;28;20028;-71
2020/12/29 01:13:14;;;;;;;1568.95;94.72;;;0.70;98.00;;;;;;5097830;28;20024;-71
2020/12/29 01:15:40;;;;;;;338.67;25.58;;;0.60;98.00;;;;;;5098124;28;20066;-71
2020/12/29 01:18:07;;;;;;;1204.22;59.47;;;0.70;98.00;;;;;;5097602;28;20099;-71
2020/12/29 01:20:33;;;;;;;784.50;30.88;;;0.70;98.00;;;;;;5079911;28;20351;-71
2020/12/29 01:22:58;;;;;;;458.48;23.60;;;0.70;98.00;;;;;;5097058;28;20078;-71
2020/12/29 01:25:24;;;;;;;113.05;10.80;;;0.60;97.90;;;;;;5097777;28;20404;-71
2020/12/29 01:27:50;;;;;;;66.15;7.88;;;0.60;98.00;;;;;;5097466;28;20028;-71
2020/12/29 01:30:16;;;;;;;550.47;23.33;;;0.50;97.90;;;;;;5079508;28;20020;-71
2020/12/29 01:32:46;;;;;;;702.25;25.30;;;0.50;97.60;;;;;;5079360;28;20020;-71
2020/12/29 01:35:11;;;;;;;791.42;34.95;;;0.50;98.00;;;;;;5097574;28;20346;-71
2020/12/29 01:37:41;;;;;;;588.45;23.10;;;0.50;98.00;;;;;;5097575;28;20027;-71
2020/12/29 01:40:07;;;;;;;394.05;21.25;;;0.40;98.00;;;;;;5097317;28;20024;-71
2020/12/29 01:42:33;;;;;;;312.55;13.75;;;0.30;98.00;;;;;;5097461;28;20031;-71
2020/12/29 01:44:59;;;;;;;240.45;11.82;;;0.20;98.00;;;;;;5097471;28;20028;-71
2020/12/29 01:47:26;;;;;;;126.68;9.07;;;0.10;98.00;;;;;;5097047;28;20024;-71
2020/12/29 01:49:53;;;;;;;161.65;9.10;;;0.00;98.00;;;;;;5097109;28;20082;-71
2020/12/29 01:52:18;;;;;;;314.92;15.43;;;0.10;98.00;;;;;;5097341;28;20028;-71
2020/12/29 01:54:45;;;;;;;51.88;9.13;;;0.10;98.00;;;;;;5097436;28;20426;-71
2020/12/29 01:57:11;;;;;;;282.98;13.65;;;0.10;98.00;;;;;;5097058;28;20112;-71
2020/12/29 01:59:37;;;;;;;284.17;16.40;;;0.10;98.00;;;;;;5096938;28;20404;-71
2020/12/29 02:02:03;;;;;;;6.20;4.85;;;0.10;98.00;;;;;;5096965;28;20042;-71
2020/12/29 02:04:29;;;;;;;8.80;5.88;;;0.10;98.00;;;;;;5096983;28;20035;-71
2020/12/29 02:06:55;;;;;;;494.35;27.15;;;0.30;98.00;;;;;;5096829;28;20034;-71
2020/12/29 02:09:21;;;;;;;1045.38;50.85;;;0.40;98.00;;;;;;5096863;28;20036;-71
2020/12/29 02:11:46;;;;;;;474.83;21.65;;;0.40;98.00;;;;;;5096864;28;20043;-71
2020/12/29 02:14:15;;;;;;;616.50;34.90;;;0.30;98.00;;;;;;5096736;28;20028;-71
2020/12/29 02:16:43;;;;;;;435.75;20.67;;;0.30;98.00;;;;;;5096786;28;20035;-71
2020/12/29 02:19:10;;;;;;;432.98;22.85;;;0.30;98.00;;;;;;5079131;28;20479;-71
2020/12/29 02:21:38;;;;;;;577.67;28.88;;;0.40;98.00;;;;;;5096945;28;20020;-71
2020/12/29 02:24:07;;;;;;;558.15;27.08;;;0.40;98.00;;;;;;5096984;28;20036;-71
2020/12/29 02:26:34;;;;;;;496.10;23.90;;;0.40;98.00;;;;;;5096694;28;20077;-71
2020/12/29 02:29:02;;;;;;;50.70;10.43;;;0.40;98.00;;;;;;5096908;28;20370;-71
2020/12/29 02:31:28;;;;;;;377.80;19.85;;;0.50;98.00;;;;;;5096717;28;20301;-71
2020/12/29 02:33:54;;;;;;;312.38;13.95;;;0.60;98.00;;;;;;5097359;28;20046;-71
2020/12/29 02:36:20;;;;;;;161.70;11.75;;;0.70;98.00;;;;;;5100798;28;20048;-71
2020/12/29 02:38:46;;;;;;;412.60;21.35;;;0.70;97.90;;;;;;5100740;28;20024;-71
2020/12/29 02:41:13;;;;;;;310.33;20.17;;;0.70;97.60;;;;;;5100926;28;20024;-71
2020/12/29 02:43:39;;;;;;;377.20;21.00;;;0.70;97.60;;;;;;5100784;28;20066;-71
2020/12/29 02:46:05;;;;;;;588.80;28.50;;;0.70;97.50;;;;;;5100783;28;20039;-71
2020/12/29 02:48:31;;;;;;;1056.45;62.30;;;0.80;97.70;;;;;;5100473;28;20337;-71
2020/12/29 02:50:56;;;;;;;904.28;45.88;;;0.80;97.80;;;;;;5100760;28;20024;-71
2020/12/29 02:53:22;;;;;;;689.63;39.72;;;0.80;97.80;;;;;;5100319;28;20109;-71
2020/12/29 02:55:48;;;;;;;652.22;34.00;;;0.60;97.80;;;;;;5082383;28;20301;-71
2020/12/29 02:58:13;;;;;;;1019.10;45.45;;;0.60;98.00;;;;;;5100356;28;20403;-71
2020/12/29 03:00:39;;;;;;;958.25;53.58;;;0.60;98.00;;;;;;5100574;28;20076;-71
2020/12/29 03:03:04;;;;;;;742.97;55.15;;;0.70;98.00;;;;;;5082350;28;20031;-71
2020/12/29 03:05:30;;;;;;;628.45;30.83;;;0.80;98.00;;;;;;5100163;28;20024;-71
2020/12/29 03:07:56;;;;;;;686.97;43.25;;;0.80;98.00;;;;;;5100176;28;20028;-71
2020/12/29 03:10:22;;;;;;;1056.40;56.95;;;0.90;98.00;;;;;;5100134;28;20028;-71
2020/12/29 03:12:47;;;;;;;670.40;34.38;;;1.00;98.00;;;;;;5082032;28;20036;-71
2020/12/29 03:15:13;;;;;;;512.05;26.95;;;1.00;97.80;;;;;;5100282;28;20481;-71
2020/12/29 03:17:39;;;;;;;533.42;26.63;;;0.80;97.10;;;;;;5100206;28;20020;-71
2020/12/29 03:20:06;;;;;;;102.32;10.80;;;0.70;97.50;;;;;;5099950;28;20350;-71
2020/12/29 03:22:33;;;;;;;503.83;24.20;;;0.70;97.90;;;;;;5099788;28;20055;-71
2020/12/29 03:24:59;;;;;;;728.95;40.72;;;0.70;98.00;;;;;;5099800;28;20106;-71
2020/12/29 03:27:24;;;;;;;526.50;30.20;;;0.80;97.90;;;;;;5099848;28;20062;-71
2020/12/29 03:29:50;;;;;;;933.95;48.88;;;0.80;97.60;;;;;;5081818;28;20030;-71
2020/12/29 03:32:15;;;;;;;1256.18;79.25;;;0.90;97.70;;;;;;5099731;28;20302;-71
2020/12/29 03:34:41;;;;;;;1171.40;63.53;;;0.90;97.60;;;;;;5099554;28;20440;-71
2020/12/29 03:37:08;;;;;;;1167.97;60.33;;;0.90;97.50;;;;;;5099563;28;20384;-71
2020/12/29 03:39:35;;;;;;;1267.03;65.75;;;0.90;97.30;;;;;;5099545;28;20020;-71
2020/12/29 03:42:02;;;;;;;1177.13;60.72;;;0.80;97.60;;;;;;5099449;28;20020;-71
2020/12/29 03:44:28;;;;;;;1153.03;63.13;;;0.80;97.60;;;;;;5099064;28;20020;-71
2020/12/29 03:46:53;;;;;;;1010.78;56.40;;;0.70;97.70;;;;;;5099425;28;20301;-71
2020/12/29 03:49:19;;;;;;;781.67;42.65;;;0.70;98.00;;;;;;5099168;28;20051;-71
2020/12/29 03:51:45;;;;;;;907.55;50.35;;;0.70;98.00;;;;;;5099607;28;20362;-71
2020/12/29 03:54:11;;;;;;;988.03;52.08;;;0.70;98.00;;;;;;5099511;28;20057;-71
2020/12/29 03:56:37;;;;;;;695.92;38.72;;;0.80;98.00;;;;;;5099201;28;20074;-71
2020/12/29 03:59:03;;;;;;;691.08;38.38;;;0.80;98.00;;;;;;5081262;28;20020;-71
2020/12/29 04:01:29;;;;;;;828.25;40.30;;;0.90;98.00;;;;;;5099387;28;20030;-71
2020/12/29 04:03:55;;;;;;;920.75;46.30;;;0.90;98.00;;;;;;5099291;28;20024;-71
2020/12/29 04:06:20;;;;;;;579.63;33.92;;;0.90;98.00;;;;;;5099079;28;20488;-71
2020/12/29 04:08:46;;;;;;;480.70;33.25;;;0.90;98.00;;;;;;5099043;28;20320;-71
2020/12/29 04:11:12;;;;;;;762.20;44.25;;;1.00;98.00;;;;;;5098989;28;20099;-71
2020/12/29 04:13:38;;;;;;;1290.00;68.18;;;1.00;97.70;;;;;;5098894;28;20430;-71
2020/12/29 04:16:03;;;;;;;633.97;34.28;;;0.90;97.60;;;;;;5099056;28;20339;-71
2020/12/29 04:18:29;;;;;;;605.65;33.40;;;0.90;97.50;;;;;;5099049;28;20027;-71
2020/12/29 04:20:55;;;;;;;754.75;44.20;;;0.90;97.40;;;;;;5098809;28;20028;-71
2020/12/29 04:23:20;;;;;;;990.72;50.97;;;0.80;97.50;;;;;;5098654;28;20319;-71
2020/12/29 04:25:46;;;;;;;1524.55;80.93;;;0.80;97.50;;;;;;5098683;28;20035;-71
2020/12/29 04:28:11;;;;;;;1313.05;70.63;;;0.60;97.60;;;;;;5098668;28;20043;-71
2020/12/29 04:30:37;;;;;;;1081.93;62.17;;;0.50;98.00;;;;;;5098583;28;20031;-71
2020/12/29 04:33:03;;;;;;;1100.30;56.35;;;0.50;98.00;;;;;;5098450;28;20073;-71
2020/12/29 04:35:28;;;;;;;1000.72;55.10;;;0.40;98.00;;;;;;5098461;28;20081;-71
2020/12/29 04:37:54;;;;;;;309.33;21.95;;;0.40;98.00;;;;;;5098494;28;20489;-71
2020/12/29 04:40:20;;;;;;;552.85;28.08;;;0.50;98.00;;;;;;5098345;28;20316;-71
2020/12/29 04:42:46;;;;;;;395.80;23.17;;;0.50;98.00;;;;;;5098382;28;20035;-71
2020/12/29 04:45:13;;;;;;;895.80;45.28;;;0.40;98.00;;;;;;5098689;28;20016;-71
2020/12/29 04:47:40;;;;;;;443.73;27.63;;;0.50;98.00;;;;;;5098111;28;20051;-71
2020/12/29 04:50:05;;;;;;;242.10;15.23;;;0.40;98.00;;;;;;5080307;28;20020;-71
2020/12/29 04:52:32;;;;;;;18.98;10.45;;;0.40;97.60;;;;;;5098027;28;20301;-71
2020/12/29 04:54:59;;;;;;;12.60;8.95;;;0.40;97.30;;;;;;5080100;28;20051;-71
2020/12/29 04:57:25;;;;;;;7.03;5.20;;;0.20;96.80;;;;;;5097283;28;20153;-71
2020/12/29 04:59:52;;;;;;;4.18;3.50;;;0.20;97.10;;;;;;5080008;28;20048;-71
2020/12/29 05:02:18;;;;;;;4.75;2.92;;;0.30;97.30;;;;;;5098066;28;20099;-71
2020/12/29 05:04:43;;;;;;;3.70;2.67;;;0.40;97.30;;;;;;5097917;28;20044;-71
2020/12/29 05:07:09;;;;;;;3.47;2.63;;;0.50;97.30;;;;;;5098197;28;20327;-71
2020/12/29 05:09:35;;;;;;;5.90;3.40;;;0.70;97.40;;;;;;5097887;28;20041;-71
2020/12/29 05:12:01;;;;;;;12.18;7.05;;;0.80;97.40;;;;;;5097832;28;20020;-71
2020/12/29 05:14:28;;;;;;;22.65;11.15;;;0.90;96.90;;;;;;5097734;28;20104;-71
2020/12/29 05:16:55;;;;;;;26.23;12.65;;;1.00;96.70;;;;;;5079827;28;20460;-71
2020/12/29 05:19:22;;;;;;;30.65;14.35;;;1.00;96.80;;;;;;5097658;28;20058;-71
2020/12/29 05:21:48;;;;;;;36.03;19.52;;;1.10;96.60;;;;;;5097539;28;20032;-71
2020/12/29 05:24:18;;;;;;;16.85;10.40;;;1.10;96.20;;;;;;5079708;28;20063;-71
2020/12/29 05:26:48;;;;;;;6.90;4.25;;;1.20;96.10;;;;;;5097795;28;20103;-71
2020/12/29 05:29:13;;;;;;;5.68;3.30;;;1.20;95.80;;;;;;5097818;28;20020;-71
2020/12/29 05:31:44;;;;;;;5.05;3.42;;;1.20;95.70;;;;;;5097368;28;20056;-71
2020/12/29 05:34:29;;;;;;;4.22;3.40;;;1.30;95.90;;;;;;5097351;28;20020;-71
2020/12/29 05:36:57;;;;;;;4.28;3.60;;;1.20;95.80;;;;;;5097382;28;20024;-71
2020/12/29 05:39:25;;;;;;;7.20;5.35;;;1.20;95.50;;;;;;5097255;28;20469;-71
2020/12/29 05:41:54;;;;;;;11.70;7.78;;;1.20;95.60;;;;;;5097275;28;20028;-71
2020/12/29 05:44:34;;;;;;;14.77;8.68;;;1.30;96.00;;;;;;5097153;28;20031;-71
2020/12/29 05:47:03;;;;;;;12.20;7.07;;;1.30;95.50;;;;;;5079286;28;20020;-71
2020/12/29 05:49:30;;;;;;;6.28;4.32;;;1.40;94.70;;;;;;5097019;28;20100;-71
2020/12/29 05:51:57;;;;;;;30.05;9.85;;;1.40;93.80;;;;;;5079181;28;20185;-71
2020/12/29 05:54:27;;;;;;;17.05;7.30;;;1.40;94.20;;;;;;5096881;28;20059;-71
2020/12/29 05:56:53;;;;;;;6.18;3.85;;;1.50;94.20;;;;;;5097092;28;20020;-71
2020/12/29 05:59:19;;;;;;;5.07;3.35;;;1.40;95.00;;;;;;5096937;28;20020;-71
2020/12/29 06:01:47;;;;;;;5.32;3.60;;;1.30;95.70;;;;;;5097144;28;20032;-71
2020/12/29 06:04:13;;;;;;;8.82;4.60;;;1.20;95.90;;;;;;5096916;28;20020;-71
2020/12/29 06:06:43;;;;;;;8.77;4.80;;;1.10;96.50;;;;;;5096942;28;20461;-71
2020/12/29 06:09:11;;;;;;;8.27;5.20;;;1.00;97.00;;;;;;5096773;28;20032;-71
2020/12/29 06:11:58;;;;;;;4.82;3.33;;;1.00;97.10;;;;;;5097139;28;20039;-71
2020/12/29 06:14:25;;;;;;;6.78;3.40;;;1.10;96.60;;;;;;5096073;28;20033;-71
2020/12/29 06:16:55;;;;;;;5.78;3.67;;;1.30;94.80;;;;;;5097102;28;20027;-71
2020/12/29 06:19:27;;;;;;;4.63;3.35;;;1.40;94.40;;;;;;5096729;28;20044;-71
2020/12/29 06:22:02;;;;;;;4.57;3.30;;;1.50;94.60;;;;;;5097539;28;20032;-71
2020/12/29 06:24:30;;;;;;;5.40;4.03;;;1.60;94.40;;;;;;5097205;28;20106;-71
2020/12/29 06:27:00;;;;;;;8.50;4.32;;;1.70;94.30;;;;;;5096757;28;20042;-71
2020/12/29 06:29:32;;;;;;;8.70;4.40;;;1.80;93.30;;;;;;5078781;28;20059;-71
2020/12/29 06:32:04;;;;;;;5.68;4.03;;;1.80;93.70;;;;;;5096977;28;20028;-71
2020/12/29 06:34:32;;;;;;;7.05;4.72;;;1.90;92.10;;;;;;5096564;28;20043;-71
2020/12/29 06:37:23;;;;;;;8.38;5.20;;;1.80;92.40;;;;;;5096619;28;20031;-71
2020/12/29 06:40:09;;;;;;;6.88;4.82;;;1.80;93.90;;;;;;5096623;28;20016;-71
2020/12/29 06:42:42;;;;;;;6.22;4.57;;;1.80;93.70;;;;;;5096725;28;20431;-71
2020/12/29 06:45:10;;;;;;;6.47;4.63;;;1.70;93.70;;;;;;5096862;28;20030;-71
2020/12/29 06:47:44;;;;;;;13.93;6.75;;;1.60;94.30;;;;;;5075082;28;20049;-71
2020/12/29 06:50:28;;;;;;;6.22;4.63;;;1.60;94.40;;;;;;5076499;28;20028;-71
2020/12/29 06:53:01;;;;;;;6.15;4.85;;;1.60;94.90;;;;;;5076430;28;20068;-71
2020/12/29 06:55:35;;;;;;;7.00;4.68;;;1.60;95.70;;;;;;5076288;28;20079;-71
2020/12/29 06:58:00;;;;;;;8.02;5.18;;;1.60;95.90;;;;;;5076723;28;20067;-71
2020/12/29 07:00:26;;;;;;;7.20;4.10;;;1.60;95.70;;;;;;5076253;28;20021;-71
2020/12/29 07:02:53;;;;;;;6.82;4.18;;;1.60;95.30;;;;;;5075138;28;20067;-71
2020/12/29 07:05:22;;;;;;;4.80;3.65;;;1.50;95.20;;;;;;5076404;28;20351;-71
2020/12/29 07:07:52;;;;;;;6.20;4.20;;;1.50;95.70;;;;;;5076423;28;20029;-71
2020/12/29 07:10:19;;;;;;;8.27;4.20;;;1.50;96.10;;;;;;5076102;28;20029;-71
2020/12/29 07:12:47;;;;;;;7.55;4.20;;;1.50;96.30;;;;;;5076212;28;20067;-71
2020/12/29 07:15:14;;;;;;;4.60;3.15;;;1.60;96.50;;;;;;5076238;28;20025;-71
2020/12/29 07:17:52;;;;;;;4.82;3.50;;;1.60;96.80;;;;;;5075996;28;20032;-71
2020/12/29 07:20:17;;;;;;;6.57;3.95;;;1.70;96.80;;;;;;5077321;28;20016;-71
2020/12/29 07:22:56;;;;;;;9.40;4.30;;;1.70;96.40;;;;;;5079620;28;20035;-71
2020/12/29 07:25:24;;;;;;;7.07;4.63;;;1.70;96.50;;;;;;5078656;28;20091;-71
2020/12/29 07:27:50;;;;;;;5.20;3.83;;;1.80;96.50;;;;;;5079777;28;20028;-71
2020/12/29 07:30:16;;;;;;;6.55;4.13;;;1.80;96.30;;;;;;5079810;28;20051;-71
2020/12/29 07:32:42;;;;;;;8.05;3.90;;;1.80;96.70;;;;;;5079491;28;20033;-71
2020/12/29 07:35:08;;;;;;;5.30;4.25;;;1.80;96.90;;;;;;5078283;28;20119;-71
2020/12/29 07:37:35;;;;;;;4.82;3.53;;;1.90;96.30;;;;;;5079371;28;20401;-71
2020/12/29 07:40:00;;;;;;;6.43;4.05;;;1.90;96.10;;;;;;5079371;28;20082;-71
2020/12/29 07:42:26;;;;;;;6.50;3.80;;;1.90;96.70;;;;;;5079902;28;20025;-71
2020/12/29 07:44:52;;;;;;;5.13;3.38;;;2.00;96.90;;;;;;5079248;28;20021;-71
2020/12/29 07:47:17;;;;;;;6.88;3.25;;;2.00;96.00;;;;;;5080039;28;20107;-71
2020/12/29 07:49:43;;;;;;;4.68;3.30;;;2.10;95.60;;;;;;5099684;28;20028;-72
2020/12/29 07:52:20;;;;;;;5.13;3.45;;;2.20;95.30;;;;;;5099392;28;20028;-71
2020/12/29 07:54:45;;;;;;;5.78;3.63;;;2.30;95.80;;;;;;5099729;28;20498;-71
2020/12/29 07:57:11;;;;;;;7.05;3.50;;;2.30;96.20;;;;;;5099573;28;20060;-71
2020/12/29 07:59:37;;;;;;;4.93;3.92;;;2.20;96.50;;;;;;5081257;28;20024;-71
2020/12/29 08:02:07;;;;;;;5.65;3.85;;;2.20;96.60;;;;;;5099337;28;20131;-71
2020/12/29 08:04:33;;;;;;;6.03;4.18;;;2.10;96.60;;;;;;5099153;28;20028;-71
2020/12/29 08:07:06;;;;;;;6.22;4.60;;;2.00;96.60;;;;;;5099390;28;20070;-71
2020/12/29 08:09:52;;;;;;;7.75;4.95;;;1.90;96.60;;;;;;5099335;28;20051;-71
2020/12/29 08:12:18;;;;;;;6.25;5.00;;;1.80;96.90;;;;;;5098937;28;20371;-71
2020/12/29 08:14:44;;;;;;;6.22;4.00;;;1.80;97.20;;;;;;5098781;28;20020;-71
2020/12/29 08:17:10;;;;;;;9.70;4.10;;;1.70;97.50;;;;;;5080963;28;20024;-71
2020/12/29 08:19:36;;;;;;;6.95;3.83;;;1.70;97.70;;;;;;5098878;28;20016;-71
2020/12/29 08:22:12;;;;;;;5.07;3.60;;;1.70;97.80;;;;;;5098849;28;20115;-71
2020/12/29 08:24:41;;;;;;;7.18;3.08;;;1.80;97.90;;;;;;5081025;28;20028;-71
2020/12/29 08:27:07;;;;;;;5.85;3.58;;;1.80;97.80;;;;;;5098800;28;20324;-71
2020/12/29 08:29:33;;;;;;;3.97;2.97;;;1.80;98.00;;;;;;5098603;28;20027;-71
2020/12/29 08:32:10;;;;;;;4.18;3.08;;;1.90;97.90;;;;;;5097334;28;20028;-71
2020/12/29 08:34:44;;;;;;;4.78;3.03;;;1.90;97.90;;;;;;5098488;28;20031;-71
2020/12/29 08:37:12;;;;;;;7.93;3.40;;;1.90;98.00;;;;;;5098812;28;20024;-71
2020/12/29 08:39:56;;;;;;;6.85;3.25;;;2.00;98.00;;;;;;5098463;28;20027;-71
2020/12/29 08:42:22;;;;;;;5.20;3.17;;;2.10;97.90;;;;;;5098627;28;20050;-71
2020/12/29 08:44:48;;;;;;;4.85;2.67;;;2.10;98.00;;;;;;5098394;28;20039;-71
2020/12/29 08:47:14;;;;;;;2.28;1.50;;;2.20;98.00;;;;;;5098250;28;20032;-72
2020/12/29 08:49:40;;;;;;;2.00;1.50;;;2.30;98.00;;;;;;5098253;28;20320;-71
2020/12/29 08:52:06;;;;;;;1.60;0.95;;;2.40;98.00;;;;;;5080296;28;20035;-71
2020/12/29 08:54:37;;;;;;;1.17;0.80;;;2.50;97.80;;;;;;5097987;28;20035;-72
2020/12/29 08:57:05;;;;;;;1.77;0.80;;;2.60;97.50;;;;;;5098180;28;20024;-72
2020/12/29 08:59:36;;;;;;;2.38;1.00;;;2.70;97.40;;;;;;5080125;28;20023;-72
2020/12/29 09:02:02;;;;;;;1.40;0.80;;;2.80;97.50;;;;;;5098020;28;20023;-72
2020/12/29 09:04:40;;;;;;;1.23;0.47;;;2.90;97.10;;;;;;5098032;28;20024;-71
2020/12/29 09:07:11;;;;;;;1.02;0.60;;;3.00;96.70;;;;;;5098285;28;20375;-72
2020/12/29 09:09:38;;;;;;;1.75;0.80;;;3.10;96.50;;;;;;5097991;28;20095;-72
2020/12/29 09:12:12;;;;;;;1.48;0.95;;;3.10;96.20;;;;;;5097882;28;20036;-71
2020/12/29 09:14:49;;;;;;;1.75;0.98;;;3.20;96.10;;;;;;5079768;28;20369;-71
2020/12/29 09:17:16;;;;;;;2.10;1.33;;;3.10;96.70;;;;;;5079872;28;20111;-71
2020/12/29 09:19:41;;;;;;;1.50;1.10;;;3.00;96.90;;;;;;5097674;28;20022;-72
2020/12/29 09:22:14;;;;;;;3.67;1.40;;;2.90;97.10;;;;;;5097933;28;20028;-71
2020/12/29 09:24:51;;;;;;;1.95;1.10;;;2.90;97.30;;;;;;5079779;28;20358;-71
2020/12/29 09:27:32;;;;;;;0.90;0.70;;;3.00;97.40;;;;;;5097584;28;20075;-72
2020/12/29 09:30:11;;;;;;;1.58;0.80;;;3.00;97.50;;;;;;5079601;28;20024;-72
2020/12/29 09:32:38;;;;;;;1.40;0.85;;;3.10;97.40;;;;;;5097481;28;20118;-71
2020/12/29 09:35:26;;;;;;;1.67;0.60;;;3.30;97.90;;;;;;5097689;28;20420;-71
2020/12/29 09:37:53;;;;;;;1.73;0.60;;;3.40;98.00;;;;;;5097688;28;20027;-72
2020/12/29 09:40:19;;;;;;;1.23;0.55;;;3.50;98.00;;;;;;5097356;28;20415;-72
2020/12/29 09:42:45;;;;;;;1.35;0.70;;;3.60;97.90;;;;;;5097177;28;20077;-72
2020/12/29 09:45:11;;;;;;;0.80;0.50;;;3.80;97.30;;;;;;5097227;28;20051;-71
2020/12/29 09:47:36;;;;;;;1.38;0.50;;;3.90;97.00;;;;;;5097067;28;20052;-72
2020/12/29 09:50:03;;;;;;;0.73;0.57;;;4.10;96.40;;;;;;5079245;28;20024;-72
2020/12/29 09:52:32;;;;;;;1.33;0.47;;;4.30;96.00;;;;;;5079162;28;20043;-72
2020/12/29 09:54:58;;;;;;;1.83;1.15;;;4.40;95.90;;;;;;5097286;28;20420;-72
2020/12/29 09:57:23;;;;;;;1.65;1.23;;;4.40;96.40;;;;;;5097155;28;20059;-72
2020/12/29 09:59:49;;;;;;;2.40;1.80;;;4.50;95.50;;;;;;5079115;28;20442;-72
2020/12/29 10:02:15;;;;;;;6.80;2.42;;;4.40;92.90;;;;;;5097308;28;20030;-72
2020/12/29 10:04:40;;;;;;;8.20;4.03;;;4.20;91.80;;;;;;5079252;28;20315;-72
2020/12/29 10:07:06;;;;;;;5.00;3.17;;;4.00;92.80;;;;;;5094731;28;20062;-72
2020/12/29 10:09:32;;;;;;;3.10;1.70;;;3.90;94.40;;;;;;5084464;28;20090;-72
2020/12/29 10:11:57;;;;;;;4.95;2.25;;;3.90;95.00;;;;;;5095175;28;20036;-72
2020/12/29 10:14:23;;;;;;;3.80;2.55;;;3.90;94.40;;;;;;5078859;28;20027;-72
2020/12/29 10:16:49;;;;;;;5.18;2.70;;;3.70;95.00;;;;;;5078945;28;20404;-72
2020/12/29 10:19:14;;;;;;;3.35;2.90;;;3.60;96.10;;;;;;5078934;28;20111;-72
2020/12/29 10:21:43;;;;;;;4.57;2.78;;;3.70;96.60;;;;;;5096820;28;20016;-72
2020/12/29 10:24:10;;;;;;;6.28;3.47;;;3.80;96.10;;;;;;5096672;28;20427;-72
2020/12/29 10:26:35;;;;;;;6.60;3.10;;;3.80;96.00;;;;;;5096847;28;20036;-72
2020/12/29 10:29:01;;;;;;;5.10;2.85;;;3.80;95.80;;;;;;5096709;28;20035;-72
2020/12/29 10:31:27;;;;;;;5.22;3.03;;;3.90;95.90;;;;;;5096719;28;20031;-72
2020/12/29 10:33:52;;;;;;;4.30;2.83;;;3.90;95.60;;;;;;5096685;28;20082;-72
2020/12/29 10:36:18;;;;;;;4.47;2.92;;;3.80;95.10;;;;;;5096975;28;20028;-72
2020/12/29 10:38:43;;;;;;;4.35;2.28;;;3.80;95.10;;;;;;5096597;28;20412;-72
2020/12/29 10:41:09;;;;;;;5.97;3.13;;;3.80;95.50;;;;;;5096708;28;20016;-72
2020/12/29 10:43:35;;;;;;;5.05;3.47;;;3.80;95.90;;;;;;5096628;28;20035;-72
2020/12/29 10:46:00;;;;;;;6.45;3.25;;;3.90;96.10;;;;;;5096516;28;20319;-72
2020/12/29 10:48:26;;;;;;;4.82;3.80;;;3.90;95.90;;;;;;5096468;28;20052;-72
2020/12/29 10:50:52;;;;;;;6.45;4.15;;;3.80;95.90;;;;;;5079059;28;20105;-72
2020/12/29 10:53:18;;;;;;;5.65;3.55;;;3.80;96.40;;;;;;5096677;28;20031;-72
2020/12/29 10:55:43;;;;;;;5.07;2.95;;;3.80;97.20;;;;;;5098485;28;20028;-72
2020/12/29 10:58:09;;;;;;;4.10;3.25;;;3.90;97.60;;;;;;5100422;28;20043;-72
2020/12/29 11:00:35;;;;;;;4.00;3.10;;;3.90;97.70;;;;;;5100447;28;20289;-72
2020/12/29 11:03:00;;;;;;;5.80;2.83;;;4.00;97.50;;;;;;5082356;28;20021;-72
2020/12/29 11:05:26;;;;;;;5.38;2.25;;;4.10;97.50;;;;;;5100201;28;20027;-72
2020/12/29 11:07:51;;;;;;;4.13;2.00;;;4.10;97.30;;;;;;5100252;28;20063;-72
2020/12/29 11:10:17;;;;;;;5.88;1.95;;;4.20;97.30;;;;;;5100217;28;20032;-72
2020/12/29 11:12:42;;;;;;;4.97;1.90;;;4.20;97.30;;;;;;5100167;28;20028;-72
2020/12/29 11:15:08;;;;;;;2.00;1.58;;;4.30;97.00;;;;;;5100066;28;20073;-72
2020/12/29 11:17:34;;;;;;;520.95;26.80;;;4.30;96.90;;;;;;5100043;28;20043;-72
2020/12/29 11:20:01;;;;;;;232.65;12.52;;;4.30;97.20;;;;;;5099947;28;20055;-72
2020/12/29 11:22:27;;;;;;;1473.78;73.07;;;4.20;96.90;;;;;;5082069;28;20027;-72
2020/12/29 11:24:53;;;;;;;1362.80;66.28;;;4.20;96.50;;;;;;5082137;28;20020;-72
2020/12/29 11:27:18;;;;;;;720.53;34.15;;;4.10;95.60;;;;;;5100114;28;20047;-72
2020/12/29 11:29:44;;;;;;;149.73;11.52;;;3.90;94.80;;;;;;5099837;28;20081;-72
2020/12/29 11:32:09;;;;;;;6.35;5.18;;;3.80;95.00;;;;;;5081879;28;20467;-72
2020/12/29 11:34:35;;;;;;;7.05;5.07;;;3.60;95.30;;;;;;5099648;28;20400;-71
2020/12/29 11:37:00;;;;;;;6.25;3.67;;;3.50;96.20;;;;;;5099704;28;20063;-71
2020/12/29 11:39:26;;;;;;;8.45;4.13;;;3.40;97.00;;;;;;5081739;28;20044;-71
2020/12/29 11:41:53;;;;;;;4.95;3.53;;;3.30;97.50;;;;;;5099630;28;20415;-71
2020/12/29 11:44:19;;;;;;;3.67;1.70;;;3.40;97.90;;;;;;5099491;28;20024;-71
2020/12/29 11:46:44;;;;;;;2.67;2.10;;;3.30;97.40;;;;;;5099580;28;20032;-71
2020/12/29 11:49:10;;;;;;;6.13;1.67;;;3.30;97.40;;;;;;5099234;28;20051;-71
2020/12/29 11:51:36;;;;;;;4.10;1.50;;;3.30;97.00;;;;;;5099485;28;20024;-71
2020/12/29 11:54:02;;;;;;;5.55;1.50;;;3.30;97.40;;;;;;5099644;28;20084;-72
2020/12/29 11:56:28;;;;;;;1.23;0.90;;;3.30;97.10;;;;;;5081509;28;20428;-72
2020/12/29 11:58:55;;;;;;;2.75;1.10;;;3.30;96.90;;;;;;5099283;28;20024;-72
2020/12/29 12:01:21;;;;;;;1.63;0.70;;;3.40;97.00;;;;;;5099279;28;20031;-72
2020/12/29 12:03:46;;;;;;;1.98;1.02;;;3.50;96.60;;;;;;5099516;28;20028;-72
2020/12/29 12:06:12;;;;;;;1.00;0.50;;;3.60;95.70;;;;;;5098770;28;20031;-72
2020/12/29 12:08:37;;;;;;;2.13;0.73;;;3.70;95.00;;;;;;5098906;28;20081;-72
2020/12/29 12:11:03;;;;;;;1.50;0.63;;;3.70;95.60;;;;;;5099208;28;20032;-72
2020/12/29 12:13:29;;;;;;;1.85;0.40;;;3.70;96.00;;;;;;5099178;28;20032;-72
2020/12/29 12:15:55;;;;;;;1.65;0.50;;;3.70;95.30;;;;;;5098951;28;20024;-72
2020/12/29 12:18:20;;;;;;;2.35;0.65;;;3.70;95.90;;;;;;5098914;28;20030;-72
2020/12/29 12:20:49;;;;;;;1.40;0.50;;;3.70;95.70;;;;;;5098884;28;20028;-72
2020/12/29 12:23:15;;;;;;;1.58;0.73;;;3.80;95.90;;;;;;5099118;28;20016;-72
2020/12/29 12:25:41;;;;;;;1.70;0.90;;;3.70;96.00;;;;;;5098705;28;20412;-72
2020/12/29 12:28:07;;;;;;;3.13;0.77;;;3.70;96.70;;;;;;5098761;28;20032;-72
2020/12/29 12:30:32;;;;;;;1.98;0.70;;;3.70;97.10;;;;;;5098967;28;20036;-72
2020/12/29 12:32:58;;;;;;;2.22;0.80;;;3.80;96.70;;;;;;5098678;28;20024;-72
2020/12/29 12:35:24;;;;;;;1.20;0.70;;;3.80;96.70;;;;;;5080567;28;20020;-72
2020/12/29 12:37:49;;;;;;;2.17;0.90;;;3.80;96.30;;;;;;5098788;28;20024;-72
2020/12/29 12:40:15;;;;;;;1.02;0.60;;;3.80;96.50;;;;;;5098486;28;20055;-72
2020/12/29 12:42:40;;;;;;;2.22;0.80;;;3.90;96.50;;;;;;5098435;28;20121;-72
2020/12/29 12:45:06;;;;;;;1.75;1.13;;;3.90;96.60;;;;;;5098622;28;20052;-72
2020/12/29 12:47:32;;;;;;;1.30;0.90;;;4.00;96.60;;;;;;5098262;28;20073;-72